sensor_id;sensor_type;location;lat;lon;timestamp;pressure;altitude;pressure_sealevel;temperature;humidity
65384;BME280;51986;52.788;41.368;2024-03-22T00:01:00;99859.13;;;-0.35;48.03
65384;BME280;51986;52.788;41.368;2024-03-22T00:03:25;99871.47;;;-0.49;47.79
65384;BME280;51986;52.788;41.368;2024-03-22T00:05:51;99857.84;;;-0.81;49.08
65384;BME280;51986;52.788;41.368;2024-03-22T00:08:17;99892.59;;;-0.64;48.74
65384;BME280;51986;52.788;41.368;2024-03-22T00:10:43;99841.13;;;-0.49;48.68
65384;BME280;51986;52.788;41.368;2024-03-22T00:13:09;99877.81;;;-0.73;48.70
65384;BME280;51986;52.788;41.368;2024-03-22T00:15:35;99871.78;;;-0.33;48.34
65384;BME280;51986;52.788;41.368;2024-03-22T00:18:01;99861.69;;;-0.61;48.19
65384;BME280;51986;52.788;41.368;2024-03-22T00:20:27;99842.00;;;-0.70;49.27
65384;BME280;51986;52.788;41.368;2024-03-22T00:22:52;99856.66;;;-0.57;48.84
65384;BME280;51986;52.788;41.368;2024-03-22T00:25:18;99874.25;;;-0.94;49.27
65384;BME280;51986;52.788;41.368;2024-03-22T00:27:44;99847.22;;;-1.10;50.33
65384;BME280;51986;52.788;41.368;2024-03-22T00:30:10;99844.44;;;-0.83;50.04
65384;BME280;51986;52.788;41.368;2024-03-22T00:32:36;99883.06;;;-0.95;50.43
65384;BME280;51986;52.788;41.368;2024-03-22T00:35:02;99869.41;;;-0.87;49.95
65384;BME280;51986;52.788;41.368;2024-03-22T00:37:28;99834.78;;;-1.00;50.28
65384;BME280;51986;52.788;41.368;2024-03-22T00:39:54;99832.34;;;-0.96;50.19
65384;BME280;51986;52.788;41.368;2024-03-22T00:42:20;99845.94;;;-0.82;50.64
65384;BME280;51986;52.788;41.368;2024-03-22T00:44:46;99839.84;;;-0.86;49.94
65384;BME280;51986;52.788;41.368;2024-03-22T00:47:12;99825.22;;;-0.82;49.94
65384;BME280;51986;52.788;41.368;2024-03-22T00:49:37;99867.88;;;-0.79;49.94
65384;BME280;51986;52.788;41.368;2024-03-22T00:52:03;99856.47;;;-0.78;49.56
65384;BME280;51986;52.788;41.368;2024-03-22T00:54:29;99858.03;;;-1.08;50.74
65384;BME280;51986;52.788;41.368;2024-03-22T00:56:55;99854.91;;;-0.96;50.40
65384;BME280;51986;52.788;41.368;2024-03-22T00:59:21;99860.03;;;-1.05;50.46
65384;BME280;51986;52.788;41.368;2024-03-22T01:01:48;99829.00;;;-0.88;50.44
65384;BME280;51986;52.788;41.368;2024-03-22T01:04:14;99837.81;;;-1.37;51.33
65384;BME280;51986;52.788;41.368;2024-03-22T01:06:40;99850.47;;;-0.96;50.93
65384;BME280;51986;52.788;41.368;2024-03-22T01:09:06;99845.13;;;-1.00;50.00
65384;BME280;51986;52.788;41.368;2024-03-22T01:11:32;99823.44;;;-1.12;50.34
65384;BME280;51986;52.788;41.368;2024-03-22T01:13:58;99832.44;;;-1.18;50.75
65384;BME280;51986;52.788;41.368;2024-03-22T01:16:24;99831.38;;;-1.09;50.66
65384;BME280;51986;52.788;41.368;2024-03-22T01:18:50;99866.94;;;-0.92;50.00
65384;BME280;51986;52.788;41.368;2024-03-22T01:21:16;99833.81;;;-1.12;50.53
65384;BME280;51986;52.788;41.368;2024-03-22T01:23:42;99851.34;;;-1.09;50.33
65384;BME280;51986;52.788;41.368;2024-03-22T01:26:07;99863.44;;;-0.96;50.72
65384;BME280;51986;52.788;41.368;2024-03-22T01:28:33;99873.63;;;-1.00;50.61
65384;BME280;51986;52.788;41.368;2024-03-22T01:30:59;99828.38;;;-0.93;50.48
65384;BME280;51986;52.788;41.368;2024-03-22T01:33:25;99843.34;;;-0.90;50.31
65384;BME280;51986;52.788;41.368;2024-03-22T01:35:51;99821.09;;;-0.91;50.04
65384;BME280;51986;52.788;41.368;2024-03-22T01:38:17;99830.03;;;-1.06;50.23
65384;BME280;51986;52.788;41.368;2024-03-22T01:40:43;99802.16;;;-1.09;51.10
65384;BME280;51986;52.788;41.368;2024-03-22T01:43:09;99810.09;;;-1.06;50.75
65384;BME280;51986;52.788;41.368;2024-03-22T01:45:36;99818.47;;;-1.00;50.27
65384;BME280;51986;52.788;41.368;2024-03-22T01:48:02;99841.34;;;-0.93;50.40
65384;BME280;51986;52.788;41.368;2024-03-22T01:50:28;99809.19;;;-1.01;50.70
65384;BME280;51986;52.788;41.368;2024-03-22T01:52:54;99852.47;;;-0.84;50.15
65384;BME280;51986;52.788;41.368;2024-03-22T01:55:20;99821.41;;;-0.84;50.07
65384;BME280;51986;52.788;41.368;2024-03-22T01:57:48;99800.50;;;-0.88;51.00
65384;BME280;51986;52.788;41.368;2024-03-22T02:00:16;99831.94;;;-0.81;50.24
65384;BME280;51986;52.788;41.368;2024-03-22T02:02:42;99824.59;;;-0.79;50.12
65384;BME280;51986;52.788;41.368;2024-03-22T02:05:15;99818.38;;;-0.78;50.28
65384;BME280;51986;52.788;41.368;2024-03-22T02:07:42;99820.03;;;-0.82;50.58
65384;BME280;51986;52.788;41.368;2024-03-22T02:10:09;99803.38;;;-0.98;50.79
65384;BME280;51986;52.788;41.368;2024-03-22T02:12:36;99839.25;;;-0.83;50.15
65384;BME280;51986;52.788;41.368;2024-03-22T02:15:02;99831.94;;;-0.81;50.60
65384;BME280;51986;52.788;41.368;2024-03-22T02:17:28;99794.88;;;-0.99;50.48
65384;BME280;51986;52.788;41.368;2024-03-22T02:19:54;99824.59;;;-0.87;50.23
65384;BME280;51986;52.788;41.368;2024-03-22T02:22:20;99815.75;;;-0.95;50.77
65384;BME280;51986;52.788;41.368;2024-03-22T02:24:46;99812.19;;;-1.08;50.24
65384;BME280;51986;52.788;41.368;2024-03-22T02:27:12;99824.16;;;-0.81;50.45
65384;BME280;51986;52.788;41.368;2024-03-22T02:29:37;99812.72;;;-0.80;50.20
65384;BME280;51986;52.788;41.368;2024-03-22T02:32:05;99807.56;;;-0.71;49.90
65384;BME280;51986;52.788;41.368;2024-03-22T02:34:31;99784.25;;;-0.71;49.46
65384;BME280;51986;52.788;41.368;2024-03-22T02:36:57;99814.56;;;-0.71;49.54
65384;BME280;51986;52.788;41.368;2024-03-22T02:39:23;99807.53;;;-0.88;49.97
65384;BME280;51986;52.788;41.368;2024-03-22T02:41:49;99791.06;;;-0.84;50.12
65384;BME280;51986;52.788;41.368;2024-03-22T02:44:15;99797.66;;;-0.78;49.85
65384;BME280;51986;52.788;41.368;2024-03-22T02:46:40;99791.84;;;-0.83;49.48
65384;BME280;51986;52.788;41.368;2024-03-22T02:49:06;99784.72;;;-0.78;49.47
65384;BME280;51986;52.788;41.368;2024-03-22T02:51:32;99797.50;;;-0.73;49.10
65384;BME280;51986;52.788;41.368;2024-03-22T02:53:58;99788.22;;;-0.82;49.25
65384;BME280;51986;52.788;41.368;2024-03-22T02:56:24;99803.28;;;-0.76;49.57
65384;BME280;51986;52.788;41.368;2024-03-22T02:58:50;99794.91;;;-0.73;49.70
65384;BME280;51986;52.788;41.368;2024-03-22T03:01:16;99820.06;;;-0.73;49.63
65384;BME280;51986;52.788;41.368;2024-03-22T03:03:42;99798.88;;;-0.75;49.43
65384;BME280;51986;52.788;41.368;2024-03-22T03:06:08;99801.47;;;-0.75;49.62
65384;BME280;51986;52.788;41.368;2024-03-22T03:08:34;99781.66;;;-0.71;49.11
65384;BME280;51986;52.788;41.368;2024-03-22T03:11:00;99796.59;;;-0.77;49.44
65384;BME280;51986;52.788;41.368;2024-03-22T03:13:26;99804.69;;;-0.61;49.36
65384;BME280;51986;52.788;41.368;2024-03-22T03:15:52;99795.06;;;-0.60;48.88
65384;BME280;51986;52.788;41.368;2024-03-22T03:18:17;99803.16;;;-0.62;48.96
65384;BME280;51986;52.788;41.368;2024-03-22T03:20:43;99783.63;;;-0.51;48.67
65384;BME280;51986;52.788;41.368;2024-03-22T03:23:09;99821.47;;;-0.06;48.12
65384;BME280;51986;52.788;41.368;2024-03-22T03:25:36;99791.38;;;0.10;47.24
65384;BME280;51986;52.788;41.368;2024-03-22T03:28:01;99770.00;;;0.13;47.52
65384;BME280;51986;52.788;41.368;2024-03-22T03:30:27;99783.31;;;0.50;46.77
65384;BME280;51986;52.788;41.368;2024-03-22T03:32:53;99792.47;;;0.86;45.90
65384;BME280;51986;52.788;41.368;2024-03-22T03:35:19;99787.81;;;1.00;45.34
65384;BME280;51986;52.788;41.368;2024-03-22T03:37:45;99800.38;;;1.40;45.28
65384;BME280;51986;52.788;41.368;2024-03-22T03:40:11;99775.78;;;1.58;44.36
65384;BME280;51986;52.788;41.368;2024-03-22T03:42:37;99795.19;;;1.94;43.34
65384;BME280;51986;52.788;41.368;2024-03-22T03:45:03;99786.28;;;2.40;42.63
65384;BME280;51986;52.788;41.368;2024-03-22T03:47:29;99801.28;;;2.68;42.02
65384;BME280;51986;52.788;41.368;2024-03-22T03:49:55;99822.88;;;2.80;41.72
65384;BME280;51986;52.788;41.368;2024-03-22T03:52:22;99798.75;;;3.08;41.21
65384;BME280;51986;52.788;41.368;2024-03-22T03:54:48;99775.19;;;3.17;40.37
65384;BME280;51986;52.788;41.368;2024-03-22T03:57:14;99781.16;;;3.17;40.57
65384;BME280;51986;52.788;41.368;2024-03-22T03:59:40;99765.56;;;3.33;40.06
65384;BME280;51986;52.788;41.368;2024-03-22T04:02:06;99774.22;;;3.77;39.42
65384;BME280;51986;52.788;41.368;2024-03-22T04:04:32;99783.09;;;3.88;39.18
65384;BME280;51986;52.788;41.368;2024-03-22T04:06:58;99786.66;;;4.12;38.80
65384;BME280;51986;52.788;41.368;2024-03-22T04:09:24;99797.94;;;4.16;38.81
65384;BME280;51986;52.788;41.368;2024-03-22T04:11:50;99760.56;;;4.28;39.44
65384;BME280;51986;52.788;41.368;2024-03-22T04:14:16;99770.66;;;4.29;39.37
65384;BME280;51986;52.788;41.368;2024-03-22T04:16:41;99784.31;;;4.38;39.04
65384;BME280;51986;52.788;41.368;2024-03-22T04:19:07;99793.25;;;4.37;39.33
65384;BME280;51986;52.788;41.368;2024-03-22T04:21:34;99744.28;;;4.34;39.24
65384;BME280;51986;52.788;41.368;2024-03-22T04:24:00;99770.09;;;4.20;39.51
65384;BME280;51986;52.788;41.368;2024-03-22T04:26:26;99765.19;;;4.19;39.54
65384;BME280;51986;52.788;41.368;2024-03-22T04:28:52;99785.16;;;4.11;39.69
65384;BME280;51986;52.788;41.368;2024-03-22T04:31:17;99804.91;;;3.96;40.16
65384;BME280;51986;52.788;41.368;2024-03-22T04:33:43;99782.31;;;3.88;40.48
65384;BME280;51986;52.788;41.368;2024-03-22T04:36:09;99764.97;;;3.80;40.66
65384;BME280;51986;52.788;41.368;2024-03-22T04:38:35;99782.22;;;3.28;40.99
65384;BME280;51986;52.788;41.368;2024-03-22T04:41:01;99804.91;;;3.40;41.01
65384;BME280;51986;52.788;41.368;2024-03-22T04:43:27;99770.88;;;3.49;41.50
65384;BME280;51986;52.788;41.368;2024-03-22T04:45:54;99786.78;;;3.19;41.49
65384;BME280;51986;52.788;41.368;2024-03-22T04:48:21;99803.09;;;3.16;41.60
65384;BME280;51986;52.788;41.368;2024-03-22T04:50:49;99764.09;;;3.48;40.94
65384;BME280;51986;52.788;41.368;2024-03-22T04:53:15;99776.50;;;3.51;40.43
65384;BME280;51986;52.788;41.368;2024-03-22T04:55:42;99748.72;;;3.86;39.94
65384;BME280;51986;52.788;41.368;2024-03-22T04:58:08;99730.69;;;3.81;39.79
65384;BME280;51986;52.788;41.368;2024-03-22T05:00:34;99762.06;;;4.13;39.62
65384;BME280;51986;52.788;41.368;2024-03-22T05:03:00;99733.00;;;3.99;39.49
65384;BME280;51986;52.788;41.368;2024-03-22T05:05:26;99774.00;;;4.14;39.73
65384;BME280;51986;52.788;41.368;2024-03-22T05:07:52;99761.75;;;4.30;39.04
65384;BME280;51986;52.788;41.368;2024-03-22T05:10:18;99729.44;;;4.38;39.09
65384;BME280;51986;52.788;41.368;2024-03-22T05:12:44;99740.56;;;4.67;38.40
65384;BME280;51986;52.788;41.368;2024-03-22T05:15:10;99753.03;;;4.74;38.50
65384;BME280;51986;52.788;41.368;2024-03-22T05:17:36;99758.91;;;4.86;38.61
65384;BME280;51986;52.788;41.368;2024-03-22T05:20:02;99769.75;;;4.69;38.59
65384;BME280;51986;52.788;41.368;2024-03-22T05:22:28;99749.78;;;4.45;39.01
65384;BME280;51986;52.788;41.368;2024-03-22T05:24:54;99766.41;;;4.88;38.94
65384;BME280;51986;52.788;41.368;2024-03-22T05:27:20;99752.94;;;5.05;38.46
65384;BME280;51986;52.788;41.368;2024-03-22T05:29:45;99739.94;;;5.09;38.21
65384;BME280;51986;52.788;41.368;2024-03-22T05:32:11;99788.22;;;5.31;38.17
65384;BME280;51986;52.788;41.368;2024-03-22T05:34:37;99754.81;;;5.24;38.67
65384;BME280;51986;52.788;41.368;2024-03-22T05:37:03;99751.59;;;5.31;38.13
65384;BME280;51986;52.788;41.368;2024-03-22T05:39:29;99767.91;;;5.43;37.95
65384;BME280;51986;52.788;41.368;2024-03-22T05:41:55;99756.66;;;5.82;37.45
65384;BME280;51986;52.788;41.368;2024-03-22T05:44:22;99786.13;;;5.98;37.11
65384;BME280;51986;52.788;41.368;2024-03-22T05:46:48;99760.25;;;5.96;36.95
65384;BME280;51986;52.788;41.368;2024-03-22T05:49:15;99755.78;;;6.20;36.95
65384;BME280;51986;52.788;41.368;2024-03-22T05:51:41;99773.72;;;6.67;35.75
65384;BME280;51986;52.788;41.368;2024-03-22T05:54:07;99760.72;;;6.75;35.28
65384;BME280;51986;52.788;41.368;2024-03-22T05:56:33;99750.34;;;7.08;35.44
65384;BME280;51986;52.788;41.368;2024-03-22T05:58:59;99741.09;;;7.55;34.61
65384;BME280;51986;52.788;41.368;2024-03-22T06:01:25;99774.09;;;7.53;34.49
65384;BME280;51986;52.788;41.368;2024-03-22T06:03:51;99756.03;;;7.47;34.31
65384;BME280;51986;52.788;41.368;2024-03-22T06:06:17;99757.06;;;7.39;34.53
65384;BME280;51986;52.788;41.368;2024-03-22T06:08:43;99761.44;;;7.62;34.23
65384;BME280;51986;52.788;41.368;2024-03-22T06:11:09;99732.59;;;7.69;33.95
65384;BME280;51986;52.788;41.368;2024-03-22T06:13:35;99723.41;;;7.48;34.24
65384;BME280;51986;52.788;41.368;2024-03-22T06:16:00;99738.66;;;7.73;34.27
65384;BME280;51986;52.788;41.368;2024-03-22T06:18:26;99737.69;;;7.92;33.58
65384;BME280;51986;52.788;41.368;2024-03-22T06:20:52;99726.88;;;7.97;33.70
65384;BME280;51986;52.788;41.368;2024-03-22T06:23:18;99742.28;;;8.02;34.10
65384;BME280;51986;52.788;41.368;2024-03-22T06:25:59;99731.72;;;8.43;33.98
65384;BME280;51986;52.788;41.368;2024-03-22T06:28:28;99752.38;;;8.44;33.20
65384;BME280;51986;52.788;41.368;2024-03-22T06:30:54;99743.56;;;8.74;32.50
65384;BME280;51986;52.788;41.368;2024-03-22T06:33:20;99741.09;;;9.02;31.86
65384;BME280;51986;52.788;41.368;2024-03-22T06:35:47;99721.50;;;8.93;32.87
65384;BME280;51986;52.788;41.368;2024-03-22T06:38:13;99739.28;;;9.21;32.54
65384;BME280;51986;52.788;41.368;2024-03-22T06:40:39;99746.84;;;9.29;31.80
65384;BME280;51986;52.788;41.368;2024-03-22T06:43:05;99735.16;;;9.27;31.60
65384;BME280;51986;52.788;41.368;2024-03-22T06:45:31;99760.09;;;9.62;30.56
65384;BME280;51986;52.788;41.368;2024-03-22T06:47:57;99725.09;;;9.58;31.04
65384;BME280;51986;52.788;41.368;2024-03-22T06:50:23;99720.97;;;9.71;30.93
65384;BME280;51986;52.788;41.368;2024-03-22T06:52:54;99720.59;;;9.65;31.22
65384;BME280;51986;52.788;41.368;2024-03-22T06:55:20;99715.63;;;9.28;31.45
65384;BME280;51986;52.788;41.368;2024-03-22T06:57:47;99730.34;;;9.61;31.45
65384;BME280;51986;52.788;41.368;2024-03-22T07:00:14;99722.81;;;9.38;32.14
65384;BME280;51986;52.788;41.368;2024-03-22T07:02:40;99726.63;;;9.62;31.33
65384;BME280;51986;52.788;41.368;2024-03-22T07:05:07;99705.50;;;9.44;32.03
65384;BME280;51986;52.788;41.368;2024-03-22T07:07:34;99733.66;;;9.26;32.93
65384;BME280;51986;52.788;41.368;2024-03-22T07:10:01;99729.19;;;9.44;32.00
65384;BME280;51986;52.788;41.368;2024-03-22T07:12:27;99733.78;;;9.83;31.75
65384;BME280;51986;52.788;41.368;2024-03-22T07:14:53;99728.53;;;9.87;32.01
65384;BME280;51986;52.788;41.368;2024-03-22T07:17:19;99744.31;;;9.72;31.99
65384;BME280;51986;52.788;41.368;2024-03-22T07:19:44;99737.13;;;9.66;32.28
65384;BME280;51986;52.788;41.368;2024-03-22T07:22:10;99731.13;;;9.69;32.17
65384;BME280;51986;52.788;41.368;2024-03-22T07:24:36;99756.75;;;9.93;32.46
65384;BME280;51986;52.788;41.368;2024-03-22T07:27:02;99746.59;;;10.06;33.06
65384;BME280;51986;52.788;41.368;2024-03-22T07:29:28;99744.25;;;9.44;33.26
65384;BME280;51986;52.788;41.368;2024-03-22T07:31:54;99752.75;;;9.09;33.33
65384;BME280;51986;52.788;41.368;2024-03-22T07:34:20;99740.53;;;9.59;32.35
65384;BME280;51986;52.788;41.368;2024-03-22T07:36:46;99715.31;;;9.69;31.75
65384;BME280;51986;52.788;41.368;2024-03-22T07:39:12;99724.38;;;9.71;31.62
65384;BME280;51986;52.788;41.368;2024-03-22T07:41:38;99714.94;;;9.63;31.89
65384;BME280;51986;52.788;41.368;2024-03-22T07:44:04;99707.06;;;9.74;31.43
65384;BME280;51986;52.788;41.368;2024-03-22T07:46:30;99711.56;;;9.98;31.65
65384;BME280;51986;52.788;41.368;2024-03-22T07:48:55;99709.31;;;10.11;31.98
65384;BME280;51986;52.788;41.368;2024-03-22T07:51:21;99715.31;;;10.19;32.27
65384;BME280;51986;52.788;41.368;2024-03-22T07:53:47;99712.31;;;10.17;31.46
65384;BME280;51986;52.788;41.368;2024-03-22T07:56:13;99710.44;;;10.06;31.09
65384;BME280;51986;52.788;41.368;2024-03-22T07:58:39;99711.22;;;10.11;31.76
65384;BME280;51986;52.788;41.368;2024-03-22T08:01:05;99721.38;;;10.01;31.52
65384;BME280;51986;52.788;41.368;2024-03-22T08:03:31;99707.44;;;10.04;31.79
65384;BME280;51986;52.788;41.368;2024-03-22T08:05:57;99691.25;;;10.02;32.12
65384;BME280;51986;52.788;41.368;2024-03-22T08:08:25;99676.94;;;10.07;33.21
65384;BME280;51986;52.788;41.368;2024-03-22T08:10:51;99688.97;;;10.04;32.30
65384;BME280;51986;52.788;41.368;2024-03-22T08:13:17;99684.44;;;10.23;31.79
65384;BME280;51986;52.788;41.368;2024-03-22T08:15:43;99678.81;;;10.21;31.94
65384;BME280;51986;52.788;41.368;2024-03-22T08:18:09;99691.97;;;10.14;31.77
65384;BME280;51986;52.788;41.368;2024-03-22T08:20:34;99710.06;;;9.97;31.93
65384;BME280;51986;52.788;41.368;2024-03-22T08:23:00;99651.34;;;9.58;32.90
65384;BME280;51986;52.788;41.368;2024-03-22T08:25:26;99678.09;;;9.92;32.73
65384;BME280;51986;52.788;41.368;2024-03-22T08:27:52;99656.63;;;9.93;32.23
65384;BME280;51986;52.788;41.368;2024-03-22T08:30:18;99673.16;;;10.22;32.54
65384;BME280;51986;52.788;41.368;2024-03-22T08:32:44;99680.69;;;10.24;32.23
65384;BME280;51986;52.788;41.368;2024-03-22T08:35:10;99690.84;;;10.47;31.45
65384;BME280;51986;52.788;41.368;2024-03-22T08:37:35;99671.22;;;10.59;32.00
65384;BME280;51986;52.788;41.368;2024-03-22T08:40:01;99674.13;;;10.86;31.61
65384;BME280;51986;52.788;41.368;2024-03-22T08:42:27;99664.47;;;10.47;32.03
65384;BME280;51986;52.788;41.368;2024-03-22T08:44:53;99662.13;;;10.70;32.24
65384;BME280;51986;52.788;41.368;2024-03-22T08:47:19;99667.00;;;10.79;31.37
65384;BME280;51986;52.788;41.368;2024-03-22T08:49:45;99660.22;;;10.71;30.83
65384;BME280;51986;52.788;41.368;2024-03-22T08:52:11;99662.16;;;10.63;30.58
65384;BME280;51986;52.788;41.368;2024-03-22T08:54:37;99661.03;;;10.57;30.62
65384;BME280;51986;52.788;41.368;2024-03-22T08:57:02;99653.53;;;10.48;30.21
65384;BME280;51986;52.788;41.368;2024-03-22T08:59:28;99668.53;;;10.66;30.01
65384;BME280;51986;52.788;41.368;2024-03-22T09:01:54;99641.50;;;10.29;30.61
65384;BME280;51986;52.788;41.368;2024-03-22T09:04:20;99659.25;;;9.65;30.13
65384;BME280;51986;52.788;41.368;2024-03-22T09:06:46;99637.75;;;10.34;30.39
65384;BME280;51986;52.788;41.368;2024-03-22T09:09:12;99652.84;;;10.16;30.75
65384;BME280;51986;52.788;41.368;2024-03-22T09:11:38;99646.06;;;10.15;30.13
65384;BME280;51986;52.788;41.368;2024-03-22T09:14:04;99651.34;;;10.07;30.88
65384;BME280;51986;52.788;41.368;2024-03-22T09:16:30;99660.34;;;10.24;30.32
65384;BME280;51986;52.788;41.368;2024-03-22T09:18:56;99648.97;;;10.60;30.51
65384;BME280;51986;52.788;41.368;2024-03-22T09:21:21;99635.16;;;10.05;30.61
65384;BME280;51986;52.788;41.368;2024-03-22T09:23:47;99665.63;;;10.14;30.29
65384;BME280;51986;52.788;41.368;2024-03-22T09:26:15;99665.59;;;10.28;30.82
65384;BME280;51986;52.788;41.368;2024-03-22T09:28:41;99666.75;;;10.34;30.01
65384;BME280;51986;52.788;41.368;2024-03-22T09:31:07;99643.03;;;10.09;29.84
65384;BME280;51986;52.788;41.368;2024-03-22T09:33:34;99633.25;;;10.13;29.77
65384;BME280;51986;52.788;41.368;2024-03-22T09:36:00;99653.22;;;9.96;30.36
65384;BME280;51986;52.788;41.368;2024-03-22T09:38:26;99655.88;;;10.00;29.95
65384;BME280;51986;52.788;41.368;2024-03-22T09:40:52;99647.97;;;9.93;29.76
65384;BME280;51986;52.788;41.368;2024-03-22T09:43:18;99629.13;;;9.66;29.79
65384;BME280;51986;52.788;41.368;2024-03-22T09:45:45;99644.22;;;9.62;30.83
65384;BME280;51986;52.788;41.368;2024-03-22T09:48:13;99621.59;;;9.46;31.04
65384;BME280;51986;52.788;41.368;2024-03-22T09:50:40;99614.81;;;9.10;30.62
65384;BME280;51986;52.788;41.368;2024-03-22T09:53:08;99648.69;;;9.29;30.46
65384;BME280;51986;52.788;41.368;2024-03-22T09:55:35;99622.63;;;8.88;30.77
65384;BME280;51986;52.788;41.368;2024-03-22T09:58:02;99644.38;;;8.74;31.15
65384;BME280;51986;52.788;41.368;2024-03-22T10:00:27;99610.94;;;8.75;30.59
65384;BME280;51986;52.788;41.368;2024-03-22T10:02:54;99617.06;;;9.04;31.14
65384;BME280;51986;52.788;41.368;2024-03-22T10:05:20;99636.22;;;9.05;31.15
65384;BME280;51986;52.788;41.368;2024-03-22T10:07:47;99622.31;;;9.08;32.23
65384;BME280;51986;52.788;41.368;2024-03-22T10:10:13;99652.38;;;9.03;31.11
65384;BME280;51986;52.788;41.368;2024-03-22T10:12:39;99619.28;;;9.02;30.45
65384;BME280;51986;52.788;41.368;2024-03-22T10:15:05;99627.94;;;9.06;30.25
65384;BME280;51986;52.788;41.368;2024-03-22T10:17:31;99614.34;;;8.79;31.61
65384;BME280;51986;52.788;41.368;2024-03-22T10:19:57;99608.03;;;9.05;31.50
65384;BME280;51986;52.788;41.368;2024-03-22T10:22:23;99607.28;;;9.12;30.13
65384;BME280;51986;52.788;41.368;2024-03-22T10:24:49;99616.69;;;9.06;30.60
65384;BME280;51986;52.788;41.368;2024-03-22T10:27:15;99609.19;;;9.29;29.94
65384;BME280;51986;52.788;41.368;2024-03-22T10:29:41;99592.22;;;9.01;30.93
65384;BME280;51986;52.788;41.368;2024-03-22T10:32:08;99608.81;;;9.23;30.86
65384;BME280;51986;52.788;41.368;2024-03-22T10:34:37;99594.13;;;9.15;30.92
65384;BME280;51986;52.788;41.368;2024-03-22T10:37:03;99596.38;;;9.17;31.13
65384;BME280;51986;52.788;41.368;2024-03-22T10:39:30;99619.31;;;9.06;30.22
65384;BME280;51986;52.788;41.368;2024-03-22T10:41:56;99611.75;;;8.90;29.08
65384;BME280;51986;52.788;41.368;2024-03-22T10:44:22;99599.38;;;9.08;29.67
65384;BME280;51986;52.788;41.368;2024-03-22T10:46:49;99593.72;;;8.99;29.61
65384;BME280;51986;52.788;41.368;2024-03-22T10:49:17;99574.88;;;8.79;29.72
65384;BME280;51986;52.788;41.368;2024-03-22T10:51:46;99577.03;;;8.59;30.06
65384;BME280;51986;52.788;41.368;2024-03-22T10:54:17;99566.25;;;8.82;30.06
65384;BME280;51986;52.788;41.368;2024-03-22T10:56:44;99579.69;;;8.59;29.50
65384;BME280;51986;52.788;41.368;2024-03-22T10:59:19;99599.16;;;8.44;29.10
65384;BME280;51986;52.788;41.368;2024-03-22T11:01:46;99574.44;;;8.70;28.24
65384;BME280;51986;52.788;41.368;2024-03-22T11:04:12;99580.25;;;8.17;29.08
65384;BME280;51986;52.788;41.368;2024-03-22T11:06:38;99581.94;;;8.61;28.71
65384;BME280;51986;52.788;41.368;2024-03-22T11:09:04;99564.25;;;8.50;28.40
65384;BME280;51986;52.788;41.368;2024-03-22T11:11:30;99565.63;;;8.19;29.07
65384;BME280;51986;52.788;41.368;2024-03-22T11:13:57;99558.44;;;8.13;29.23
65384;BME280;51986;52.788;41.368;2024-03-22T11:16:23;99570.13;;;8.22;29.36
65384;BME280;51986;52.788;41.368;2024-03-22T11:18:49;99560.47;;;8.44;29.21
65384;BME280;51986;52.788;41.368;2024-03-22T11:21:15;99590.22;;;8.66;29.47
65384;BME280;51986;52.788;41.368;2024-03-22T11:23:44;99571.41;;;8.53;28.95
65384;BME280;51986;52.788;41.368;2024-03-22T11:26:11;99549.59;;;8.49;28.98
65384;BME280;51986;52.788;41.368;2024-03-22T11:28:36;99545.84;;;8.47;28.15
65384;BME280;51986;52.788;41.368;2024-03-22T11:31:22;99559.78;;;8.58;28.43
65384;BME280;51986;52.788;41.368;2024-03-22T11:33:49;99532.75;;;8.61;28.16
65384;BME280;51986;52.788;41.368;2024-03-22T11:36:15;99530.47;;;8.52;27.41
65384;BME280;51986;52.788;41.368;2024-03-22T11:38:41;99542.41;;;8.32;27.68
65384;BME280;51986;52.788;41.368;2024-03-22T11:41:10;99530.69;;;8.15;26.83
65384;BME280;51986;52.788;41.368;2024-03-22T11:43:37;99512.72;;;8.32;27.60
65384;BME280;51986;52.788;41.368;2024-03-22T11:46:03;99521.38;;;8.29;26.64
65384;BME280;51986;52.788;41.368;2024-03-22T11:48:29;99545.06;;;8.39;27.00
65384;BME280;51986;52.788;41.368;2024-03-22T11:50:55;99509.38;;;8.38;27.62
65384;BME280;51986;52.788;41.368;2024-03-22T11:53:21;99531.56;;;8.44;26.20
65384;BME280;51986;52.788;41.368;2024-03-22T11:55:49;99508.63;;;8.41;27.21
65384;BME280;51986;52.788;41.368;2024-03-22T11:58:18;99509.03;;;8.47;27.01
65384;BME280;51986;52.788;41.368;2024-03-22T12:00:44;99506.00;;;8.45;26.35
65384;BME280;51986;52.788;41.368;2024-03-22T12:03:10;99514.31;;;8.54;26.08
65384;BME280;51986;52.788;41.368;2024-03-22T12:05:36;99503.78;;;8.47;26.07
65384;BME280;51986;52.788;41.368;2024-03-22T12:08:03;99508.28;;;8.53;26.28
65384;BME280;51986;52.788;41.368;2024-03-22T12:10:29;99497.81;;;8.71;26.32
65384;BME280;51986;52.788;41.368;2024-03-22T12:12:55;99500.06;;;8.73;26.40
65384;BME280;51986;52.788;41.368;2024-03-22T12:15:20;99509.47;;;8.67;27.89
65384;BME280;51986;52.788;41.368;2024-03-22T12:17:46;99501.25;;;8.83;28.93
65384;BME280;51986;52.788;41.368;2024-03-22T12:20:12;99512.91;;;8.92;28.23
65384;BME280;51986;52.788;41.368;2024-03-22T12:22:38;99510.66;;;9.01;28.17
65384;BME280;51986;52.788;41.368;2024-03-22T12:25:04;99494.13;;;9.08;28.93
65384;BME280;51986;52.788;41.368;2024-03-22T12:27:30;99483.22;;;9.17;29.36
65384;BME280;51986;52.788;41.368;2024-03-22T12:29:56;99484.31;;;9.37;29.37
65384;BME280;51986;52.788;41.368;2024-03-22T12:32:22;99486.63;;;9.10;29.30
65384;BME280;51986;52.788;41.368;2024-03-22T12:34:48;99500.50;;;9.32;28.89
65384;BME280;51986;52.788;41.368;2024-03-22T12:37:14;99486.25;;;9.19;28.76
65384;BME280;51986;52.788;41.368;2024-03-22T12:39:40;99492.22;;;9.09;28.55
65384;BME280;51986;52.788;41.368;2024-03-22T12:42:06;99492.25;;;9.19;28.09
65384;BME280;51986;52.788;41.368;2024-03-22T12:44:32;99503.53;;;9.31;28.70
65384;BME280;51986;52.788;41.368;2024-03-22T12:46:58;99466.28;;;9.21;28.06
65384;BME280;51986;52.788;41.368;2024-03-22T12:49:24;99460.66;;;9.34;28.39